VDPPVDSV

Guest
Details From VDPP - Phnom Penh Intl
To VDSV - SIHANUKVILLE
Flight Number -
Tags generated
Created
Modified
Stats Distance 92 nm / 170 km
Max Altitude 0 ft / 0 m
Waypoints 3
Social Downloads 5
Likes 0
Share VATSIM

Download

Looking for another format? Having issues loading an existing format? Contact us
Advertisement - Login to hide

Notes

Basic altitude profile: - Ascent Rate: 2500ft/min - Ascent Speed: 250kts - Cruise Altitude: 35000ft - Cruise Speed: 420kts - Descent Rate: 1500ft/min - Descent Speed: 250kts Options: - Use NATs: yes - Use PACOTS: yes - Use low airways: yes - Use high airways: yes

Route

VDPP PNH VDSV

ID Type Via Altitude Latitude Longitude Leg Dist Tot Dist Heading (true) Name
O VDPP APT - 0 ft / 0 m 11.54654˚ 104.84414˚ - 0 nm - Phnom Penh Intl
PNH VOR - 0 ft / 0 m 11.54667˚ 104.84167˚ 0 nm 0 nm 273° / 273° PHNOM PENH VOR-DME
O VDSV APT - 0 ft / 0 m 10.57917˚ 103.63683˚ 91 nm 91 nm 231° / 231° SIHANUKVILLE

Altitude Profile

Advertisement - Login to hide

VDPP

Details ICAO VDPP (PNH)
Name Phnom Penh Intl
Region Cambodia
Timezone Asia/Phnom_Penh (UTC+7.0)
Stats Elevation 40 ft / 12 m (AMSL)
Location 11.546542° 104.844142°
Runways 1
Magnetic Variation 0.501° W

METAR

VDPP 251430Z VRB01KT 9000 SCT017 SCT040 30/25 Q1007

Decode

TAF

TAF VDPP 251100Z 2512/2606 14007KT 9999 SCT017 TEMPO 2512/2517 SCT015 FEW017CB SCT040

Decode

Departure Runways

ID Width Length Bearing (true) Bearing (mag) Surface Threshold Offset Overrun Length
05 144 ft / 44 m 9,815 ft / 2,992 m 45.61° 46.11° Asphalt 400 ft / 122 m 0 ft / 0 m
23 144 ft / 44 m 9,815 ft / 2,992 m 225.61° 226.11° Asphalt 492 ft / 150 m 0 ft / 0 m

VDSV

Details ICAO VDSV (KOS)
Name SIHANUKVILLE
Region Cambodia
Timezone Asia/Phnom_Penh (UTC+7.0)
Stats Elevation 33 ft / 10 m (AMSL)
Location 10.579172° 103.636827°
Runways 1
Magnetic Variation 0.394° W

METAR

VDSV 251430Z VRB01KT 9000 FEW017 29/26 Q1009

Decode

TAF

TAF VDSV 251100Z 2512/2606 14006KT 9999 SCT017 TEMPO 2512/2517 5000 TSRA SCT015 FEW017CB SCT040

Decode

Destination Runways

ID Width Length Bearing (true) Bearing (mag) Surface Threshold Offset Overrun Length
03 112 ft / 34 m 4,268 ft / 1,301 m 27.47° 27.86° Asphalt 0 ft / 0 m 0 ft / 0 m
21 112 ft / 34 m 4,268 ft / 1,301 m 207.47° 207.86° Asphalt 0 ft / 0 m 0 ft / 0 m

Popular Alternatives